Portada
METAR-TAF:

METAR-TAF

Aeropuertos :

Wellington, Nueva Zelanda

Aeropuerto Internacional de Wellington

latitud: 41-20S, longitud: 174-48E, altitud: 12 m

Observación

El informe se hizo hace 39 minutos, a las 23:00 UTC
Viento 21 kt del norte
Temperatura 16°C
Humedad 72%
Presión 1003 hPa
Visibilidad 10 km o más

METAR: NZWN 202300Z AUTO 36021KT 9999 NCD 16/11 Q1003 NOSIG

Hora: 12:39 (23:39 UTC)

Pronóstico

El informe se hizo hace 6 horas y 37 minutos, a las 17:02 UTC
Pronóstico válido del 20 a las 18 UTC al 21 a las 18 UTC
Viento 20 kt del norte con ráfagas de 30 kt
Visibilidad 10 km o más
Nubes dispersas a una altura de 2000 ft
Temporalmente
del 21 a las 04 UTC al 21 a las 08 UTC
Visibilidad: 7000 m
chaparrones de lluvia
Evolucionando progresivamente
del 21 a las 06 UTC al 21 a las 08 UTC
Viento 15 kt del norte-noroeste

TAF: NZWN 201702Z 2018/2118 01020G30KT 9999 SCT020 TEMPO 2104/2108 7000 SHRA BECMG 2106/2108 34015KT

Observaciones y pronósticos meteorológicos de más de 4000 aeropuertos (mensajes METAR y TAF).

Los puntos amarillos y rojos representan las estaciones disponibles.

Ponga el ratón en el punto deseado para ver el nombre de la estación.

Haga clic para ver las observaciones y los pronósticos meteorológicos.

Para cambiar el mapa : haga clic en los botones verdes con una cruz de color negro para hacer un zoom, en el botón verde con un guión para alejar o en las flechas verdes para mapas adyacentes.


METAR-TAF: